Time;durP1;ratioP1;P1;durP2;ratioP2;P2;SDS_P1;SDS_P2;PMS_P1;PMS_P2;Temp;Humidity;BMP_temperature;BMP_pressure;BME280_temperature;BME280_humidity;BME280_pressure;Samples;Min_cycle;Max_cycle;Signal;HPM_P1;HPM_P2
2024/01/07 00:03:02;;;;;;;9.90;7.37;;;;;;;8.46;48.52;99213.53;10481817;28;20546;-67
2024/01/07 00:08:04;;;;;;;11.27;8.40;;;;;;;8.09;49.39;99238.41;10474569;28;20235;-71
2024/01/07 00:13:05;;;;;;;11.97;7.93;;;;;;;8.35;48.65;99309.13;10486725;28;20739;-69
2024/01/07 00:18:07;;;;;;;7.80;6.70;;;;;;;9.13;48.04;99150.31;10482061;28;20209;-68
2024/01/07 00:23:09;;;;;;;9.73;7.90;;;;;;;9.00;47.76;99224.91;10485641;28;20255;-72
2024/01/07 00:28:11;;;;;;;8.40;7.37;;;;;;;9.65;46.48;99228.44;10479434;28;20326;-68
2024/01/07 00:33:13;;;;;;;11.50;7.60;;;;;;;8.63;47.79;99347.50;10483765;28;20310;-67
2024/01/07 00:38:14;;;;;;;11.47;7.67;;;;;;;8.53;48.23;99253.59;10476562;28;20255;-68
2024/01/07 00:43:16;;;;;;;10.07;7.90;;;;;;;6.50;50.21;99535.59;10491662;28;20753;-71
2024/01/07 00:48:18;;;;;;;9.30;7.03;;;;;;;9.40;46.84;99218.13;10486415;28;20787;-71
2024/01/07 00:53:19;;;;;;;9.60;7.07;;;;;;;8.32;48.06;99378.78;10488980;28;20331;-71
2024/01/07 00:58:21;;;;;;;10.43;7.60;;;;;;;7.70;49.16;99392.03;10479763;28;20316;-71
2024/01/07 01:03:23;;;;;;;8.77;7.33;;;;;;;8.21;48.72;99321.41;10488653;28;20286;-70
2024/01/07 01:08:25;;;;;;;8.93;6.53;;;;;;;8.56;47.95;99341.25;10469118;28;20227;-70
2024/01/07 01:13:26;;;;;;;9.73;7.17;;;;;;;8.35;47.68;99399.78;10487404;28;20263;-70
2024/01/07 01:18:28;;;;;;;10.13;7.77;;;;;;;8.26;47.63;99423.81;10482724;28;20737;-70
2024/01/07 01:23:30;;;;;;;10.37;7.33;;;;;;;6.65;49.97;99500.34;10485771;28;20277;-70
2024/01/07 01:28:31;;;;;;;9.87;8.30;;;;;;;6.68;50.33;99454.84;10482076;28;20602;-70
2024/01/07 01:33:33;;;;;;;9.10;6.90;;;;;;;7.83;49.21;99276.91;10478707;28;20231;-68
2024/01/07 01:38:35;;;;;;;9.70;7.07;;;;;;;6.99;50.43;99357.41;10481202;28;20235;-70
2024/01/07 01:43:36;;;;;;;8.20;6.57;;;;;;;7.18;50.59;99272.84;10464782;28;20230;-71
2024/01/07 01:48:39;;;;;;;8.93;7.20;;;;;;;8.14;49.36;99197.91;10484141;28;20237;-70
2024/01/07 01:53:41;;;;;;;9.57;7.07;;;;;;;8.32;48.07;99294.34;10487009;28;20261;-70
2024/01/07 01:58:43;;;;;;;9.10;7.00;;;;;;;8.28;48.36;99285.84;10475140;28;20259;-69
2024/01/07 02:03:46;;;;;;;11.20;7.80;;;;;;;7.68;49.44;99300.81;10486647;28;20231;-70
2024/01/07 02:08:48;;;;;;;8.53;7.47;;;;;;;7.36;49.91;99334.63;10478265;28;20332;-69
2024/01/07 02:13:50;;;;;;;10.63;7.73;;;;;;;7.40;49.35;99377.69;10485965;28;20605;-69
2024/01/07 02:18:52;;;;;;;9.30;7.27;;;;;;;6.06;51.18;99477.38;10479974;28;20334;-70
2024/01/07 02:23:53;;;;;;;9.23;6.93;;;;;;;7.23;49.86;99366.28;10485095;28;20246;-70
2024/01/07 02:28:55;;;;;;;9.67;7.47;;;;;;;6.51;51.51;99340.50;10477451;28;20288;-70
2024/01/07 02:33:57;;;;;;;10.47;7.80;;;;;;;7.89;48.70;99312.69;10486762;28;20308;-70
2024/01/07 02:38:59;;;;;;;9.87;7.53;;;;;;;7.92;49.85;99205.78;10483456;28;20235;-70
2024/01/07 02:44:00;;;;;;;7.77;6.67;;;;;;;7.66;49.33;99265.56;10482295;28;20261;-70
2024/01/07 02:49:02;;;;;;;8.33;6.60;;;;;;;8.56;48.66;99154.56;10478918;28;20251;-70
2024/01/07 02:54:04;;;;;;;9.47;7.10;;;;;;;8.01;48.00;99353.88;10476978;28;20230;-70
2024/01/07 02:59:06;;;;;;;9.10;7.10;;;;;;;6.74;50.67;99377.88;10484301;28;20685;-70
2024/01/07 03:04:10;;;;;;;7.93;7.03;;;;;;;6.98;50.83;99299.84;10463755;28;20563;-68
2024/01/07 03:09:12;;;;;;;9.17;6.70;;;;;;;6.68;50.93;99365.25;10476454;28;20235;-69
2024/01/07 03:14:16;;;;;;;8.33;6.90;;;;;;;7.12;50.02;99348.88;10482044;28;20260;-69
2024/01/07 03:19:18;;;;;;;8.53;6.80;;;;;;;6.28;51.12;99437.88;10488272;28;20321;-69
2024/01/07 03:24:20;;;;;;;9.13;6.73;;;;;;;7.75;49.19;99245.00;10481026;28;20223;-68
2024/01/07 03:29:21;;;;;;;8.80;6.73;;;;;;;7.44;48.33;99482.00;10476842;28;20786;-69
2024/01/07 03:34:23;;;;;;;9.13;6.33;;;;;;;7.27;49.74;99356.13;10485961;28;20231;-69
2024/01/07 03:39:25;;;;;;;11.70;6.73;;;;;;;5.62;52.80;99430.59;10478187;28;20705;-69
2024/01/07 03:44:26;;;;;;;7.90;6.20;;;;;;;6.66;51.34;99270.72;10481543;28;20232;-70
2024/01/07 03:49:28;;;;;;;8.33;6.03;;;;;;;6.10;51.81;99361.00;10485203;28;20239;-69
2024/01/07 03:54:30;;;;;;;8.20;6.87;;;;;;;6.22;51.99;99354.34;10492003;28;20232;-69
2024/01/07 03:59:31;;;;;;;8.77;6.83;;;;;;;6.00;52.56;99318.66;10490469;28;20246;-70
2024/01/07 04:04:33;;;;;;;9.53;7.13;;;;;;;5.87;53.26;99280.16;10482094;28;20235;-68
2024/01/07 04:09:35;;;;;;;7.47;6.50;;;;;;;6.67;50.38;99410.63;10498203;22;20261;-35
2024/01/07 04:14:37;;;;;;;8.33;6.77;;;;;;;6.36;51.36;99350.16;10422219;28;20374;-35
2024/01/07 04:19:38;;;;;;;10.43;7.30;;;;;;;7.28;50.12;99256.66;10396448;28;20233;-35
2024/01/07 04:24:41;;;;;;;9.10;7.77;;;;;;;6.85;50.91;99278.28;10426394;28;20232;-35
2024/01/07 04:29:43;;;;;;;9.47;7.33;;;;;;;5.63;52.61;99410.19;10421119;28;20289;-35
2024/01/07 04:34:45;;;;;;;9.73;8.00;;;;;;;6.03;51.66;99421.91;10413938;28;20236;-35
2024/01/07 04:39:47;;;;;;;9.57;7.20;;;;;;;6.65;50.45;99421.44;10417659;28;20201;-35
2024/01/07 04:44:49;;;;;;;9.70;7.57;;;;;;;6.92;50.72;99294.41;10421848;28;20235;-35
2024/01/07 04:49:51;;;;;;;9.30;7.27;;;;;;;6.23;51.70;99387.91;10412767;28;20295;-35
2024/01/07 04:54:53;;;;;;;9.73;7.67;;;;;;;5.66;53.04;99445.22;10412075;28;21194;-35
2024/01/07 04:59:55;;;;;;;9.53;7.33;;;;;;;8.50;48.54;99231.81;10419134;28;20641;-35
2024/01/07 05:04:57;;;;;;;12.93;7.30;;;;;;;6.96;50.54;99396.81;10412036;28;20255;-35
2024/01/07 05:09:59;;;;;;;8.00;7.20;;;;;;;6.57;51.16;99410.81;10418560;28;20228;-35
2024/01/07 05:15:00;;;;;;;8.23;7.40;;;;;;;7.29;50.22;99328.34;10418934;28;20339;-35
2024/01/07 05:20:03;;;;;;;8.87;7.20;;;;;;;6.88;50.48;99376.38;10405778;28;20656;-35
2024/01/07 05:25:05;;;;;;;8.80;7.53;;;;;;;5.83;52.20;99480.59;10418144;28;20306;-35
2024/01/07 05:30:07;;;;;;;13.07;7.97;;;;;;;6.24;51.61;99416.97;10419475;28;20240;-35
2024/01/07 05:35:10;;;;;;;10.40;7.77;;;;;;;7.29;50.08;99309.72;10392893;28;20228;-35
2024/01/07 05:40:12;;;;;;;9.37;7.13;;;;;;;6.70;51.01;99392.53;10414997;28;20233;-35
2024/01/07 05:45:14;;;;;;;10.00;8.03;;;;;;;6.53;50.75;99471.47;10393953;28;20784;-35
2024/01/07 05:50:18;;;;;;;9.57;8.10;;;;;;;6.44;51.71;99376.75;10416013;28;20286;-35
2024/01/07 05:55:20;;;;;;;8.70;7.23;;;;;;;6.85;50.42;99410.47;10407733;28;20325;-35
2024/01/07 06:00:23;;;;;;;10.50;7.37;;;;;;;6.77;50.86;99403.34;10423317;28;20736;-35
2024/01/07 06:05:24;;;;;;;9.50;8.03;;;;;;;6.12;51.92;99415.59;10408211;28;20233;-35
2024/01/07 06:10:26;;;;;;;10.07;8.20;;;;;;;5.76;52.29;99484.09;10406040;28;20241;-35
2024/01/07 06:15:28;;;;;;;9.80;7.53;;;;;;;7.44;49.91;99283.19;10408318;28;20275;-35
2024/01/07 06:20:30;;;;;;;10.77;8.40;;;;;;;5.95;51.78;99499.75;10419708;28;20351;-35
2024/01/07 06:25:31;;;;;;;10.40;7.43;;;;;;;6.21;51.23;99488.19;10404226;28;20327;-35
2024/01/07 06:30:33;;;;;;;10.30;7.23;;;;;;;7.22;50.09;99337.19;10412064;28;20510;-35
2024/01/07 06:35:35;;;;;;;12.33;8.70;;;;;;;6.53;50.24;99532.59;10416753;28;20240;-35
2024/01/07 06:40:37;;;;;;;9.07;7.60;;;;;;;6.14;51.48;99519.88;10403927;28;20287;-35
2024/01/07 06:45:39;;;;;;;11.27;8.07;;;;;;;5.50;52.36;99524.72;10413481;28;20358;-35
2024/01/07 06:50:40;;;;;;;9.60;8.33;;;;;;;6.61;50.53;99447.50;10411401;28;20236;-35
2024/01/07 06:55:42;;;;;;;10.30;8.80;;;;;;;5.49;52.59;99528.38;10407253;28;20743;-35
2024/01/07 07:00:44;;;;;;;11.17;8.83;;;;;;;5.37;51.89;99633.13;10420779;28;20236;-35
2024/01/07 07:05:46;;;;;;;11.53;7.97;;;;;;;6.03;51.75;99470.53;10410387;28;20248;-35
2024/01/07 07:10:48;;;;;;;10.37;8.17;;;;;;;6.47;51.59;99397.69;10415154;28;20254;-35
2024/01/07 07:15:49;;;;;;;10.37;8.70;;;;;;;6.25;51.72;99447.00;10420658;28;20232;-35
2024/01/07 07:20:52;;;;;;;10.13;7.87;;;;;;;5.72;52.45;99517.25;10416560;28;20240;-35
2024/01/07 07:25:53;;;;;;;10.67;7.77;;;;;;;6.79;50.94;99375.56;10423616;28;20905;-35
2024/01/07 07:30:55;;;;;;;11.30;8.00;;;;;;;7.14;51.17;99325.59;10424689;28;20259;-35
2024/01/07 07:35:57;;;;;;;10.27;8.30;;;;;;;5.90;51.73;99562.31;10375779;28;20236;-35
2024/01/07 07:41:00;;;;;;;14.63;8.93;;;;;;;5.90;51.96;99555.16;10382441;28;20252;-35
2024/01/07 07:46:03;;;;;;;11.77;8.53;;;;;;;5.94;52.20;99529.97;10372521;28;20237;-35
2024/01/07 07:51:05;;;;;;;11.87;8.50;;;;;;;7.01;50.79;99409.63;10382525;28;20235;-35
2024/01/07 07:56:07;;;;;;;12.50;8.40;;;;;;;5.07;53.27;99633.38;10364112;28;20765;-35
2024/01/07 08:01:10;;;;;;;9.70;8.33;;;;;;;5.69;52.53;99552.91;10368607;28;20758;-36
2024/01/07 08:06:12;;;;;;;13.13;8.67;;;;;;;4.52;54.07;99703.19;10372631;28;20274;-35
2024/01/07 08:11:14;;;;;;;13.10;9.03;;;;;;;5.65;52.70;99535.63;10375202;28;20236;-35
2024/01/07 08:16:15;;;;;;;13.50;9.30;;;;;;;4.88;53.82;99637.03;10365877;28;20240;-35
2024/01/07 08:21:17;;;;;;;16.03;10.33;;;;;;;5.30;53.50;99547.97;10356353;28;20234;-35
2024/01/07 08:26:20;;;;;;;12.63;9.17;;;;;;;5.32;53.75;99536.25;10360075;28;20236;-35
2024/01/07 08:31:23;;;;;;;14.60;9.17;;;;;;;5.68;52.65;99551.25;10373942;28;20230;-35
2024/01/07 08:36:25;;;;;;;10.63;8.73;;;;;;;4.89;54.23;99629.88;10370865;28;20695;-35
2024/01/07 08:41:26;;;;;;;14.27;8.87;;;;;;;5.65;53.12;99511.72;10381768;28;20236;-35
2024/01/07 08:46:28;;;;;;;14.93;9.53;;;;;;;6.07;52.88;99445.31;10379106;28;20268;-35
2024/01/07 08:51:30;;;;;;;13.30;9.90;;;;;;;5.26;53.48;99570.53;10389261;28;20313;-35
2024/01/07 08:56:31;;;;;;;14.67;9.63;;;;;;;4.76;53.77;99686.78;10373794;28;20315;-36
2024/01/07 09:01:33;;;;;;;11.00;9.37;;;;;;;5.27;53.02;99638.53;10373330;28;20248;-35
2024/01/07 09:06:35;;;;;;;12.80;9.03;;;;;;;5.83;52.58;99524.94;10361478;28;20234;-35
2024/01/07 09:11:37;;;;;;;14.13;9.03;;;;;;;5.73;53.23;99501.16;10368576;28;20745;-35
2024/01/07 09:16:39;;;;;;;12.80;9.30;;;;;;;6.44;52.43;99411.31;10365410;28;20391;-35
2024/01/07 09:21:41;;;;;;;13.73;9.27;;;;;;;5.75;53.43;99491.19;10374839;28;20272;-35
2024/01/07 09:26:42;;;;;;;13.47;9.53;;;;;;;6.66;50.49;99619.84;10359057;28;20248;-35
2024/01/07 09:31:44;;;;;;;13.33;10.13;;;;;;;5.44;52.44;99737.69;10364937;28;20320;-35
2024/01/07 09:36:46;;;;;;;14.80;10.70;;;;;;;5.65;53.01;99604.66;10397381;28;20616;-35
2024/01/07 09:41:48;;;;;;;16.97;10.50;;;;;;;5.75;52.17;99695.66;10407041;28;20245;-35
2024/01/07 09:46:51;;;;;;;13.63;10.47;;;;;;;6.38;51.57;99576.75;10405540;28;20647;-35
2024/01/07 09:51:59;;;;;;;17.83;11.73;;;;;;;5.44;52.16;99757.09;10394259;28;20735;-35
2024/01/07 09:57:02;;;;;;;16.20;9.97;;;;;;;5.66;51.88;99717.84;10403256;28;20620;-35
2024/01/07 10:02:04;;;;;;;14.27;11.47;;;;;;;5.39;53.01;99660.34;10393495;28;20225;-35
2024/01/07 10:07:07;;;;;;;13.03;10.40;;;;;;;5.56;52.68;99663.97;10406856;28;20278;-35
2024/01/07 10:12:09;;;;;;;15.73;11.13;;;;;;;6.27;51.57;99607.13;10397713;28;20241;-35
2024/01/07 10:17:19;;;;;;;14.30;9.93;;;;;;;5.90;50.71;99769.47;10410074;28;20513;-35
2024/01/07 10:22:20;;;;;;;13.13;10.13;;;;;;;5.96;51.64;99667.91;10404956;28;20268;-35
2024/01/07 10:27:22;;;;;;;14.07;10.77;;;;;;;6.13;50.38;99789.22;10414363;28;20255;-35
2024/01/07 10:32:24;;;;;;;14.73;10.67;;;;;;;6.55;49.66;99756.59;10405235;28;20254;-35
2024/01/07 10:37:27;;;;;;;12.57;10.37;;;;;;;6.08;51.16;99695.88;10393407;28;20228;-35
2024/01/07 10:42:32;;;;;;;14.87;10.83;;;;;;;5.33;52.48;99763.47;10405603;28;20323;-35
2024/01/07 10:47:36;;;;;;;12.60;10.07;;;;;;;6.32;50.61;99694.34;10400156;28;20453;-35
2024/01/07 10:52:40;;;;;;;12.53;10.13;;;;;;;7.18;49.52;99593.00;10410464;28;20237;-35
2024/01/07 10:57:47;;;;;;;13.30;9.87;;;;;;;7.17;48.97;99639.25;10406928;28;20241;-36
2024/01/07 11:06:42;;;;;;;11.73;9.73;;;;;;;5.21;52.32;99740.78;10415883;28;20805;-69
2024/01/07 11:11:44;;;;;;;13.40;10.07;;;;;;;4.24;53.73;99725.31;10323008;28;20495;-69
2024/01/07 11:16:46;;;;;;;10.53;8.53;;;;;;;3.37;54.48;99844.34;10330461;28;20267;-70
2024/01/07 11:21:47;;;;;;;12.00;9.57;;;;;;;4.58;52.51;99704.44;10369457;28;20642;-68
2024/01/07 11:26:53;;;;;;;12.77;9.57;;;;;;;4.21;53.29;99742.34;10351499;28;20261;-69
2024/01/07 11:31:54;;;;;;;12.03;8.70;;;;;;;3.64;54.75;99708.72;10373514;28;20265;-68
2024/01/07 11:36:56;;;;;;;11.23;9.33;;;;;;;4.59;53.04;99610.69;10338716;28;20238;-68
2024/01/07 11:42:00;;;;;;;10.03;8.27;;;;;;;3.27;53.91;99841.69;10354646;28;20771;-68
2024/01/07 11:47:02;;;;;;;11.10;8.20;;;;;;;3.81;53.59;99725.69;10340308;28;20225;-68
2024/01/07 11:52:04;;;;;;;11.50;8.23;;;;;;;3.84;53.74;99671.66;10351327;28;20233;-69
2024/01/07 11:57:07;;;;;;;12.97;9.00;;;;;;;3.83;52.57;99775.84;10352796;28;20239;-68
2024/01/07 12:02:09;;;;;;;11.13;8.60;;;;;;;3.81;52.88;99754.00;10351394;28;20671;-68
2024/01/07 12:07:14;;;;;;;11.77;8.83;;;;;;;4.30;51.96;99714.97;10348838;28;20275;-69
2024/01/07 12:12:16;;;;;;;10.63;8.03;;;;;;;4.01;52.78;99676.19;10350613;28;20234;-70
2024/01/07 12:17:18;;;;;;;9.97;8.50;;;;;;;3.00;52.87;99874.00;10324657;28;20237;-70
2024/01/07 12:22:19;;;;;;;9.63;8.03;;;;;;;4.12;51.78;99701.69;10323252;28;20353;-69
2024/01/07 12:27:21;;;;;;;11.00;8.23;;;;;;;3.67;51.11;99923.81;10322261;28;20299;-69
2024/01/07 12:32:26;;;;;;;10.60;9.00;;;;;;;4.95;50.50;99672.53;10335532;28;20577;-68
2024/01/07 12:37:28;;;;;;;9.47;7.83;;;;;;;4.27;51.04;99762.97;10328681;28;20234;-70
2024/01/07 12:42:30;;;;;;;7.90;6.63;;;;;;;4.31;50.43;99848.31;10318555;28;20241;-69
2024/01/07 12:47:32;;;;;;;9.33;8.03;;;;;;;3.84;51.22;99822.53;10322104;28;20808;-68
2024/01/07 12:52:34;;;;;;;9.60;7.23;;;;;;;4.36;50.62;99687.94;10322391;28;20241;-66
2024/01/07 12:57:36;;;;;;;7.73;6.93;;;;;;;3.47;51.80;99778.22;10316240;28;20243;-68
2024/01/07 13:02:38;;;;;;;8.97;6.53;;;;;;;3.94;50.74;99725.41;10319058;28;20787;-69
2024/01/07 13:07:40;;;;;;;8.00;6.30;;;;;;;3.73;51.02;99732.69;10321819;28;20627;-69
2024/01/07 13:12:42;;;;;;;7.90;6.27;;;;;;;3.61;50.46;99820.19;10325841;28;20604;-69
2024/01/07 13:17:51;;;;;;;9.10;6.73;;;;;;;3.50;49.88;99902.31;10317308;28;20768;-70
2024/01/07 13:22:52;;;;;;;8.13;7.30;;;;;;;3.84;49.84;99775.72;10320476;28;20233;-68
2024/01/07 13:27:54;;;;;;;7.40;6.53;;;;;;;3.00;50.65;99918.13;10323627;28;20214;-69
2024/01/07 13:32:56;;;;;;;7.27;6.33;;;;;;;4.49;48.63;99731.81;10326524;28;20233;-69
2024/01/07 13:37:59;;;;;;;9.47;6.70;;;;;;;3.95;49.71;99736.81;10324623;28;20666;-68
2024/01/07 13:43:02;;;;;;;8.47;7.53;;;;;;;3.58;50.15;99801.94;10320620;28;20264;-69
2024/01/07 13:48:07;;;;;;;9.33;6.93;;;;;;;4.22;49.59;99656.59;10322595;28;20328;-70
2024/01/07 13:53:09;;;;;;;8.43;6.93;;;;;;;3.57;49.48;99842.56;10311997;28;20377;-69
2024/01/07 13:58:10;;;;;;;8.13;7.07;;;;;;;3.22;50.09;99858.94;10318379;28;20319;-69
2024/01/07 14:03:12;;;;;;;7.60;6.77;;;;;;;4.49;48.15;99745.06;10315536;28;20294;-68
2024/01/07 14:08:14;;;;;;;7.87;7.07;;;;;;;3.76;48.94;99945.00;10323235;28;20400;-70
2024/01/07 14:13:15;;;;;;;9.43;7.27;;;;;;;4.09;48.43;99874.09;10320476;28;20513;-73
2024/01/07 14:18:21;;;;;;;8.97;6.80;;;;;;;3.63;48.35;99971.72;10321404;28;20295;-66
2024/01/07 14:23:23;;;;;;;9.43;7.47;;;;;;;3.49;49.15;99870.69;10319460;28;20237;-67
2024/01/07 14:28:25;;;;;;;9.40;7.53;;;;;;;2.79;49.58;100029.97;10325564;28;20287;-68
2024/01/07 14:33:27;;;;;;;10.30;7.63;;;;;;;4.02;47.66;99876.47;10324088;28;20264;-71
2024/01/07 14:38:29;;;;;;;10.23;7.70;;;;;;;3.51;48.92;99877.50;10343729;28;20244;-69
2024/01/07 14:43:30;;;;;;;9.87;7.47;;;;;;;3.17;48.79;99988.91;10319414;28;20241;-71
2024/01/07 14:48:32;;;;;;;9.50;7.37;;;;;;;2.97;49.50;99963.34;10317317;28;20709;-71
2024/01/07 14:53:34;;;;;;;9.63;7.40;;;;;;;3.27;48.78;99921.03;10316069;28;20715;-71
2024/01/07 14:58:36;;;;;;;9.60;7.70;;;;;;;3.07;48.78;99965.09;10317520;28;20236;-71
2024/01/07 15:03:37;;;;;;;9.80;7.10;;;;;;;4.10;47.76;99816.66;10314707;28;20355;-68
2024/01/07 15:08:41;;;;;;;8.70;7.00;;;;;;;2.68;48.59;100167.44;10312798;28;20334;-72
2024/01/07 15:13:43;;;;;;;9.80;7.57;;;;;;;4.08;47.29;99912.16;10314686;28;20345;-71
2024/01/07 15:18:45;;;;;;;11.63;7.80;;;;;;;3.09;48.60;100084.78;10316804;28;20303;-72
2024/01/07 15:23:47;;;;;;;10.20;7.70;;;;;;;4.74;47.00;99778.88;10317231;28;20333;-69
2024/01/07 15:28:49;;;;;;;10.63;8.50;;;;;;;3.53;47.99;99967.34;10326570;28;20316;-70
2024/01/07 15:33:50;;;;;;;10.10;8.07;;;;;;;3.62;47.49;99996.50;10318605;28;20240;-71
2024/01/07 15:38:52;;;;;;;11.83;7.53;;;;;;;3.89;47.61;99933.31;10317982;28;20241;-71
2024/01/07 15:43:54;;;;;;;11.10;7.77;;;;;;;3.26;47.46;100120.38;10319376;28;20818;-72
2024/01/07 15:48:56;;;;;;;10.50;7.37;;;;;;;3.59;47.03;100039.09;10314334;28;20246;-71
2024/01/07 15:53:57;;;;;;;10.00;7.73;;;;;;;4.68;46.27;99896.09;10323221;28;20556;-71
2024/01/07 15:58:59;;;;;;;8.47;7.43;;;;;;;3.99;46.16;100029.50;10322845;28;20532;-72
2024/01/07 16:04:01;;;;;;;8.73;7.27;;;;;;;3.73;47.14;99931.19;10320328;28;20246;-71
2024/01/07 16:09:02;;;;;;;9.53;7.50;;;;;;;3.07;46.86;100101.72;10320536;28;20633;-71
2024/01/07 16:14:04;;;;;;;9.97;6.73;;;;;;;2.90;46.75;100177.94;10335660;28;20245;-71
2024/01/07 16:19:06;;;;;;;13.10;6.50;;;;;;;3.31;46.31;100106.78;10325459;28;20268;-73
2024/01/07 16:24:08;;;;;;;9.50;7.03;;;;;;;3.36;46.50;100071.97;10323138;28;20240;-72
2024/01/07 16:29:09;;;;;;;9.23;7.77;;;;;;;2.95;46.86;100152.97;10319666;28;20725;-73
2024/01/07 16:34:11;;;;;;;12.00;8.50;;;;;;;1.95;47.80;100252.31;10319893;28;20328;-72
2024/01/07 16:39:13;;;;;;;8.93;7.07;;;;;;;2.89;47.00;100122.56;10317764;28;20653;-75
2024/01/07 16:44:14;;;;;;;11.00;7.67;;;;;;;2.85;47.48;100060.34;10317906;28;20242;-73
2024/01/07 16:49:17;;;;;;;9.57;7.37;;;;;;;3.03;46.98;100073.88;10320568;28;20232;-71
2024/01/07 16:54:21;;;;;;;10.27;8.37;;;;;;;3.27;46.61;100002.19;10319549;28;20247;-70
2024/01/07 16:59:24;;;;;;;11.00;8.80;;;;;;;2.31;47.81;100102.53;10320427;28;20458;-73
2024/01/07 17:04:26;;;;;;;10.90;8.60;;;;;;;1.86;47.49;100257.44;10312120;28;20255;-72
2024/01/07 17:09:28;;;;;;;9.37;7.27;;;;;;;2.04;47.47;100179.47;10309240;28;20241;-72
2024/01/07 17:14:29;;;;;;;10.43;7.53;;;;;;;2.37;47.11;100090.66;10320010;28;20243;-72
2024/01/07 17:19:32;;;;;;;11.27;7.70;;;;;;;2.87;46.32;99952.66;10318904;28;20242;-70
2024/01/07 17:24:33;;;;;;;10.33;7.57;;;;;;;1.11;47.65;100345.53;10323259;28;20282;-71
2024/01/07 17:29:35;;;;;;;12.07;8.43;;;;;;;2.34;45.87;100101.44;10322263;28;20322;-70
2024/01/07 17:34:37;;;;;;;9.50;7.60;;;;;;;1.33;47.22;100310.59;10320074;28;20787;-71
2024/01/07 17:39:39;;;;;;;53.20;40.30;;;;;;;2.14;47.04;100074.81;10319429;28;20236;-72
2024/01/07 17:44:41;;;;;;;8.60;6.97;;;;;;;1.90;45.98;100199.03;10319163;28;20235;-71
2024/01/07 17:49:45;;;;;;;9.60;7.07;;;;;;;1.86;45.90;100194.97;10314601;28;20734;-71
2024/01/07 17:54:47;;;;;;;7.90;6.27;;;;;;;1.21;46.79;100307.84;10320000;28;20267;-72
2024/01/07 17:59:49;;;;;;;8.10;6.57;;;;;;;0.83;47.25;100356.22;10309656;28;20372;-71
2024/01/07 18:04:51;;;;;;;7.87;7.00;;;;;;;1.80;45.87;100274.59;10312762;28;20332;-72
2024/01/07 18:09:53;;;;;;;8.27;6.13;;;;;;;1.40;45.68;100349.56;10322660;28;20230;-72
2024/01/07 18:14:54;;;;;;;7.00;5.97;;;;;;;0.61;46.38;100458.75;10313677;28;20337;-72
2024/01/07 18:19:59;;;;;;;7.27;5.93;;;;;;;1.74;46.20;100177.41;10316846;28;20236;-73
2024/01/07 18:25:00;;;;;;;8.47;6.43;;;;;;;1.43;46.45;100219.28;10316679;28;20761;-72
2024/01/07 18:30:03;;;;;;;8.33;6.67;;;;;;;2.54;45.28;100139.47;10321396;28;20293;-72
2024/01/07 18:35:05;;;;;;;7.70;5.80;;;;;;;1.57;46.16;100168.13;10317514;28;20270;-70
2024/01/07 18:40:09;;;;;;;7.47;5.90;;;;;;;0.52;46.56;100338.22;10314997;28;20726;-71
2024/01/07 18:45:12;;;;;;;10.13;7.93;;;;;;;1.84;44.70;100130.03;10319084;28;20334;-69
2024/01/07 18:50:15;;;;;;;10.80;8.60;;;;;;;0.11;45.39;100550.63;10314101;28;20245;-69
2024/01/07 18:55:19;;;;;;;28.93;19.47;;;;;;;1.54;44.42;100187.69;10311187;28;20235;-71
2024/01/07 19:00:21;;;;;;;12.67;9.10;;;;;;;2.14;43.33;100203.38;10314261;28;20238;-71
2024/01/07 19:05:23;;;;;;;7.50;6.77;;;;;;;0.11;44.88;100537.47;10319292;28;20328;-73
2024/01/07 19:10:25;;;;;;;5.50;4.93;;;;;;;0.03;45.47;100355.53;10315566;28;20248;-72
2024/01/07 19:15:27;;;;;;;5.67;5.07;;;;;;;0.77;44.75;100282.88;10319714;28;20671;-71
2024/01/07 19:20:31;;;;;;;7.50;6.57;;;;;;;0.91;45.06;100226.53;10314088;28;20238;-72
2024/01/07 19:25:36;;;;;;;8.73;6.93;;;;;;;1.07;45.32;100236.84;10324702;28;20369;-72
2024/01/07 19:30:38;;;;;;;5.23;4.73;;;;;;;-0.11;45.97;100478.31;10322618;28;20246;-72
2024/01/07 19:35:40;;;;;;;5.00;4.60;;;;;;;0.21;45.23;100506.16;10326288;28;20242;-72
2024/01/07 19:40:42;;;;;;;4.53;4.13;;;;;;;0.12;46.10;100389.13;10325260;28;20250;-70
2024/01/07 19:45:45;;;;;;;5.10;4.60;;;;;;;-0.66;46.00;100540.41;10324936;28;20236;-72
2024/01/07 19:50:47;;;;;;;5.77;5.17;;;;;;;0.29;45.20;100416.97;10318246;28;20241;-72
2024/01/07 19:55:51;;;;;;;6.03;5.43;;;;;;;-0.59;46.36;100522.47;10324259;28;20340;-72
2024/01/07 20:00:53;;;;;;;8.57;6.60;;;;;;;0.34;45.85;100312.19;10318879;28;20234;-74
2024/01/07 20:05:55;;;;;;;9.10;7.83;;;;;;;2.49;44.70;100007.75;10328784;28;20743;-72
2024/01/07 20:10:57;;;;;;;8.60;7.67;;;;;;;1.34;45.29;100114.50;10323027;28;20238;-75
2024/01/07 20:16:02;;;;;;;6.93;5.00;;;;;;;1.14;44.50;100422.59;10318353;28;20233;-72
2024/01/07 20:21:04;;;;;;;4.73;4.33;;;;;;;1.23;44.38;100376.28;10320371;28;20246;-73
2024/01/07 20:26:06;;;;;;;5.70;5.17;;;;;;;1.39;44.39;100270.59;10319959;28;20237;-72
2024/01/07 20:31:11;;;;;;;5.10;4.60;;;;;;;1.01;44.47;100277.63;10319672;28;20235;-72
2024/01/07 20:36:12;;;;;;;4.80;4.40;;;;;;;0.45;44.62;100404.47;10319175;28;20267;-72
2024/01/07 20:41:16;;;;;;;4.60;4.20;;;;;;;1.71;43.27;100256.78;10319197;28;20351;-71
2024/01/07 20:46:20;;;;;;;5.70;4.27;;;;;;;0.58;43.75;100470.34;10316612;28;20229;-70
2024/01/07 20:51:24;;;;;;;5.10;4.60;;;;;;;0.09;44.50;100399.84;10316731;28;20663;-72
2024/01/07 20:56:25;;;;;;;6.43;4.90;;;;;;;0.34;43.97;100416.66;10316513;28;20257;-72
2024/01/07 21:01:29;;;;;;;4.47;4.17;;;;;;;-0.05;44.01;100527.06;10316680;28;20238;-75
2024/01/07 21:06:31;;;;;;;4.67;4.27;;;;;;;0.92;42.93;100348.63;10314831;28;20266;-73
2024/01/07 21:11:33;;;;;;;5.67;5.10;;;;;;;0.25;43.80;100390.00;10313111;28;20349;-74
2024/01/07 21:16:35;;;;;;;6.13;5.20;;;;;;;1.21;42.61;100276.19;10316236;28;20233;-72
2024/01/07 21:21:36;;;;;;;5.60;4.47;;;;;;;0.43;43.00;100481.91;10316443;28;20340;-74
2024/01/07 21:26:43;;;;;;;4.87;4.33;;;;;;;1.55;41.79;100307.22;10317358;28;20326;-73
2024/01/07 21:31:44;;;;;;;5.77;5.17;;;;;;;1.50;42.24;100275.91;10316171;28;20267;-74
2024/01/07 21:36:51;;;;;;;9.33;6.37;;;;;;;1.15;43.25;100249.44;10326216;28;20234;-74
2024/01/07 21:41:52;;;;;;;5.57;5.03;;;;;;;-0.00;42.56;100642.56;10316512;28;20257;-73
2024/01/07 21:46:54;;;;;;;5.47;4.63;;;;;;;0.73;42.98;100442.13;10319217;28;20317;-74
2024/01/07 21:51:56;;;;;;;4.93;4.43;;;;;;;0.98;42.59;100433.38;10313390;28;20326;-73
2024/01/07 21:56:57;;;;;;;4.33;3.80;;;;;;;1.05;42.58;100350.28;10325310;28;20733;-73
2024/01/07 22:01:59;;;;;;;4.43;4.13;;;;;;;0.05;43.47;100541.31;10316055;28;20253;-73
2024/01/07 22:07:01;;;;;;;8.60;7.57;;;;;;;1.15;42.57;100347.84;10325016;28;20747;-73
2024/01/07 22:12:03;;;;;;;6.07;5.47;;;;;;;0.71;42.16;100545.91;10316896;28;21047;-71
2024/01/07 22:17:04;;;;;;;5.10;4.60;;;;;;;1.68;41.71;100275.50;10323875;28;20238;-70
2024/01/07 22:22:06;;;;;;;4.50;4.10;;;;;;;0.10;43.31;100555.03;10316887;28;20424;-70
2024/01/07 22:27:08;;;;;;;4.73;4.33;;;;;;;0.89;42.30;100455.09;10316862;28;20532;-71
2024/01/07 22:32:10;;;;;;;5.00;4.50;;;;;;;0.46;43.01;100529.94;10315774;28;20847;-71
2024/01/07 22:37:11;;;;;;;5.17;4.77;;;;;;;1.57;41.79;100273.66;10322919;28;20238;-72
2024/01/07 22:42:14;;;;;;;4.70;4.30;;;;;;;1.21;42.49;100365.00;10314998;28;20244;-69
2024/01/07 22:47:15;;;;;;;4.50;4.10;;;;;;;0.96;42.50;100418.63;10315558;28;20234;-71
2024/01/07 22:52:18;;;;;;;4.33;4.03;;;;;;;1.67;41.61;100368.81;10321383;28;20300;-71
2024/01/07 22:57:23;;;;;;;5.87;5.27;;;;;;;1.49;42.33;100321.72;10316623;28;20551;-72
2024/01/07 23:02:25;;;;;;;4.57;4.17;;;;;;;1.75;42.09;100252.97;10323853;28;20252;-72
2024/01/07 23:07:27;;;;;;;5.17;4.67;;;;;;;1.13;41.77;100509.72;10315951;28;20250;-71
2024/01/07 23:12:28;;;;;;;4.47;4.07;;;;;;;2.67;40.71;100206.25;10327629;28;20243;-72
2024/01/07 23:17:30;;;;;;;4.77;4.37;;;;;;;0.87;42.36;100534.25;10320560;28;20239;-71
2024/01/07 23:22:34;;;;;;;5.73;4.50;;;;;;;2.07;41.37;100422.13;10319617;28;20243;-71
2024/01/07 23:27:40;;;;;;;4.63;4.23;;;;;;;1.58;41.49;100486.41;10318415;28;20242;-72
2024/01/07 23:32:42;;;;;;;5.67;5.07;;;;;;;0.99;41.65;100672.28;10323997;28;20340;-72